AGGH/HIR METAR and TAF weather

Enter ICAO airport designator
Station Type Date Time Source
AGGH METAR 2020/07/02 22:00 UTC NOAA

AGGH 022200Z 25002KT 9999 FEW017 FEW018CB BKN300 27/24 Q1012


Station Type Date Time Source
AGGH Decoded METAR 2020/07/02 22:00 UTC NOAA

Honiara / Henderson, Solomon Islands (AGGH) 09-25S 160-03E 9M
Jul 02, 2020 - 06:00 PM EDT / 2020.07.02 2200 UTC
Wind: from the WSW (250 degrees) at 2 MPH (2 KT):0
Visibility: greater than 7 mile(s):0
Sky conditions: mostly cloudy
Weather: Cumulonimbus clouds observed
Temperature: 80 F (27 C)
Dew Point: 75 F (24 C)
Relative Humidity: 83%
Pressure (altimeter): 29.88 in. Hg (1012 hPa)
ob: AGGH 022200Z 25002KT 9999 FEW017 FEW018CB BKN300 27/24 Q1012
cycle: 22

Station Type Date Time Source
AGGH TAF 2020/07/02 18:45 UTC NOAA

TAF TAF AGGH 021736Z 0218/0318 09015KT 9999 SCT017 BKN100 PROB40 INTER 0222/0304 5000 SHRA SCT015 BKN029 T 23 27 29 30 Q 1010 1012 1012 1010

Example: see airport list